createdAt,value
2018-05-03T00:00:54.729Z,5.20
2018-05-03T00:03:22.237Z,6.70
2018-05-03T00:05:49.803Z,5.50
2018-05-03T00:08:18.256Z,6.60
2018-05-03T00:10:45.817Z,5.97
2018-05-03T00:13:13.330Z,6.07
2018-05-03T00:15:40.849Z,5.63
2018-05-03T00:18:08.392Z,6.10
2018-05-03T00:20:36.016Z,7.07
2018-05-03T00:23:03.554Z,5.90
2018-05-03T00:25:31.149Z,5.80
2018-05-03T00:27:58.661Z,5.80
2018-05-03T00:30:27.066Z,6.10
2018-05-03T00:32:54.630Z,5.73
2018-05-03T00:35:22.178Z,6.33
2018-05-03T00:37:49.694Z,5.17
2018-05-03T00:40:17.990Z,5.80
2018-05-03T00:42:46.408Z,5.73
2018-05-03T00:45:13.929Z,5.50
2018-05-03T00:47:42.262Z,5.10
2018-05-03T00:50:09.811Z,5.70
2018-05-03T00:52:37.317Z,5.60
2018-05-03T00:55:05.593Z,5.70
2018-05-03T00:57:33.939Z,4.90
2018-05-03T01:00:01.506Z,5.33
2018-05-03T01:02:29.038Z,5.30
2018-05-03T01:04:56.582Z,5.23
2018-05-03T01:07:24.090Z,6.50
2018-05-03T01:09:51.612Z,5.90
2018-05-03T01:12:19.145Z,6.40
2018-05-03T01:14:46.668Z,6.27
2018-05-03T01:17:15.023Z,8.37
2018-05-03T01:19:42.543Z,7.93
2018-05-03T01:22:10.107Z,7.07
2018-05-03T01:24:37.629Z,7.83
2018-05-03T01:27:05.934Z,8.10
2018-05-03T01:29:33.461Z,8.60
2018-05-03T01:32:01.807Z,9.27
2018-05-03T01:34:29.350Z,7.63
2018-05-03T01:36:56.905Z,7.50
2018-05-03T01:39:24.475Z,7.90
2018-05-03T01:41:52.032Z,7.50
2018-05-03T01:44:19.577Z,6.87
2018-05-03T01:46:47.169Z,7.20
2018-05-03T01:49:14.705Z,7.70
2018-05-03T01:51:42.257Z,6.87
2018-05-03T01:54:09.808Z,7.10
2018-05-03T01:56:37.371Z,6.43
2018-05-03T01:59:04.886Z,5.60
2018-05-03T02:01:33.210Z,7.13
2018-05-03T02:04:00.741Z,6.60
2018-05-03T02:06:29.059Z,6.87
2018-05-03T02:08:56.641Z,6.20
2018-05-03T02:11:24.156Z,6.90
2018-05-03T02:13:51.723Z,7.63
2018-05-03T02:16:19.326Z,7.33
2018-05-03T02:18:46.855Z,6.60
2018-05-03T02:21:14.385Z,7.40
2018-05-03T02:23:41.951Z,7.23
2018-05-03T02:26:09.508Z,6.10
2018-05-03T02:28:37.047Z,7.13
2018-05-03T02:31:04.600Z,5.53
2018-05-03T02:33:32.929Z,6.07
2018-05-03T02:36:00.437Z,6.40
2018-05-03T02:38:28.749Z,6.33
2018-05-03T02:41:01.271Z,6.83
2018-05-03T02:43:28.790Z,6.17
2018-05-03T02:45:56.455Z,6.20
2018-05-03T02:48:24.005Z,6.97
2018-05-03T02:50:51.562Z,7.00
2018-05-03T02:53:19.103Z,6.20
2018-05-03T02:55:47.418Z,5.07
2018-05-03T02:58:26.912Z,6.17
2018-05-03T03:01:12.874Z,6.37
2018-05-03T03:03:58.021Z,6.70
2018-05-03T03:06:43.296Z,5.40
2018-05-03T03:09:28.508Z,5.00
2018-05-03T03:15:32.345Z,5.30
2018-05-03T03:18:12.643Z,5.50
2018-05-03T03:20:57.785Z,5.90
2018-05-03T03:23:43.717Z,6.60
2018-05-03T03:29:56.271Z,6.00
2018-05-03T03:32:35.631Z,6.27
2018-05-03T03:38:24.695Z,6.10
2018-05-03T03:41:03.971Z,6.93
2018-05-03T03:43:43.383Z,6.23
2018-05-03T03:46:10.971Z,6.40
2018-05-03T03:48:38.572Z,7.30
2018-05-03T03:51:06.149Z,6.00
2018-05-03T03:53:33.778Z,8.30
2018-05-03T03:56:01.367Z,7.30
2018-05-03T03:58:28.991Z,7.37
2018-05-03T04:00:56.525Z,9.10
2018-05-03T04:03:24.144Z,7.60
2018-05-03T04:05:51.717Z,8.80
2018-05-03T04:08:19.329Z,10.17
2018-05-03T04:10:46.850Z,9.97
2018-05-03T04:13:15.161Z,8.67
2018-05-03T04:15:42.679Z,9.13
2018-05-03T04:18:22.043Z,11.00
2018-05-03T04:21:04.390Z,9.53
2018-05-03T04:23:43.617Z,9.57
2018-05-03T04:26:11.153Z,10.17
2018-05-03T04:28:38.697Z,11.13
2018-05-03T04:31:06.261Z,9.70
2018-05-03T04:33:33.810Z,9.87
2018-05-03T04:36:01.384Z,9.43
2018-05-03T04:38:28.926Z,10.63
2018-05-03T04:40:56.489Z,9.77
2018-05-03T04:43:24.071Z,9.27
2018-05-03T04:45:51.730Z,10.60
2018-05-03T04:48:19.295Z,8.90
2018-05-03T04:50:46.862Z,10.70
2018-05-03T04:53:14.532Z,10.50
2018-05-03T04:55:42.276Z,11.20
2018-05-03T04:58:09.818Z,9.80
2018-05-03T05:00:37.505Z,10.70
2018-05-03T05:03:05.106Z,10.37
2018-05-03T05:05:33.450Z,9.07
2018-05-03T05:10:51.956Z,9.43
2018-05-03T05:13:19.593Z,8.20
2018-05-03T05:15:47.154Z,9.00
2018-05-03T05:18:14.743Z,8.77
2018-05-03T05:20:43.034Z,8.57
2018-05-03T05:23:10.800Z,7.80
2018-05-03T05:25:39.156Z,7.93
2018-05-03T05:28:07.441Z,8.70
2018-05-03T05:30:35.715Z,8.20
2018-05-03T05:33:04.028Z,7.30
2018-05-03T05:35:31.541Z,7.17
2018-05-03T05:37:59.090Z,6.80
2018-05-03T05:40:26.709Z,6.70
2018-05-03T05:42:54.239Z,6.57
2018-05-03T05:45:21.822Z,6.20
2018-05-03T05:47:49.489Z,6.10
2018-05-03T05:50:17.028Z,6.30
2018-05-03T05:52:44.562Z,6.20
2018-05-03T05:55:12.193Z,6.70
2018-05-03T05:57:39.775Z,6.43
2018-05-03T06:00:07.299Z,6.67
2018-05-03T06:02:34.877Z,6.43
2018-05-03T06:05:02.419Z,6.17
2018-05-03T06:07:30.200Z,6.50
2018-05-03T06:09:57.833Z,6.37
2018-05-03T06:12:25.408Z,6.57
2018-05-03T06:14:52.994Z,6.77
2018-05-03T06:17:20.518Z,6.47
2018-05-03T06:19:48.067Z,6.37
2018-05-03T06:22:15.637Z,5.80
2018-05-03T06:24:43.185Z,7.00
2018-05-03T06:27:10.761Z,6.80
2018-05-03T06:29:38.311Z,6.40
2018-05-03T06:32:05.880Z,6.73
2018-05-03T06:34:33.425Z,6.73
2018-05-03T06:37:00.971Z,6.40
2018-05-03T06:39:28.529Z,6.97
2018-05-03T06:41:56.143Z,7.47
2018-05-03T06:44:24.473Z,6.33
2018-05-03T06:46:52.161Z,6.43
2018-05-03T06:49:19.746Z,6.70
2018-05-03T06:51:47.270Z,7.40
2018-05-03T06:54:14.822Z,6.80
2018-05-03T06:56:42.375Z,7.40
2018-05-03T06:59:09.954Z,7.30
2018-05-03T07:01:37.519Z,7.17
2018-05-03T07:04:05.131Z,9.43
2018-05-03T07:06:32.605Z,7.60
2018-05-03T07:09:00.146Z,7.60
2018-05-03T07:11:28.503Z,8.07
2018-05-03T07:13:56.026Z,8.00
2018-05-03T07:16:23.740Z,8.50
2018-05-03T07:18:51.225Z,8.53
2018-05-03T07:21:18.774Z,8.50
2018-05-03T07:23:46.640Z,8.37
2018-05-03T07:26:14.944Z,8.07
2018-05-03T07:28:42.497Z,8.47
2018-05-03T07:31:10.045Z,8.50
2018-05-03T07:33:37.593Z,8.90
2018-05-03T07:36:05.149Z,10.30
2018-05-03T07:38:32.678Z,10.00
2018-05-03T07:41:00.291Z,9.10
2018-05-03T07:43:28.564Z,8.60
2018-05-03T07:45:56.120Z,9.17
2018-05-03T07:48:23.787Z,9.63
2018-05-03T07:50:51.358Z,8.50
2018-05-03T07:53:19.105Z,10.87
2018-05-03T07:55:46.648Z,8.87
2018-05-03T07:58:14.173Z,8.43
2018-05-03T08:00:42.532Z,9.60
2018-05-03T08:03:10.077Z,9.93
2018-05-03T08:05:37.719Z,8.50
2018-05-03T08:08:05.280Z,8.70
2018-05-03T08:10:32.835Z,8.77
2018-05-03T08:13:00.535Z,8.93
2018-05-03T08:15:28.101Z,9.40
2018-05-03T08:17:55.682Z,9.13
2018-05-03T08:20:23.998Z,9.50
2018-05-03T08:22:51.579Z,10.30
2018-05-03T08:25:19.177Z,8.63
2018-05-03T08:27:47.490Z,8.60
2018-05-03T08:30:15.064Z,8.43
2018-05-03T08:32:42.612Z,7.40
2018-05-03T08:35:10.204Z,8.10
2018-05-03T08:37:37.759Z,6.80
2018-05-03T08:40:05.424Z,7.43
2018-05-03T08:42:33.027Z,6.37
2018-05-03T08:45:01.463Z,7.70
2018-05-03T08:47:29.010Z,7.27
2018-05-03T08:49:56.596Z,8.23
2018-05-03T08:52:25.774Z,7.67
2018-05-03T08:54:53.755Z,9.20
2018-05-03T08:57:21.311Z,8.40
2018-05-03T08:59:48.912Z,9.93
2018-05-03T09:02:17.265Z,9.37
2018-05-03T09:04:45.559Z,10.37
2018-05-03T09:07:14.023Z,10.40
2018-05-03T09:09:42.347Z,10.40
2018-05-03T09:12:09.892Z,9.90
2018-05-03T09:14:37.500Z,11.90
2018-05-03T09:17:05.109Z,10.00
2018-05-03T09:19:32.638Z,10.57
2018-05-03T09:22:01.674Z,11.27
2018-05-03T09:24:29.268Z,11.00
2018-05-03T09:26:56.799Z,11.20
2018-05-03T09:29:24.375Z,12.60
2018-05-03T09:31:51.905Z,10.60
2018-05-03T09:34:19.445Z,11.30
2018-05-03T09:36:47.795Z,11.40
2018-05-03T09:39:16.180Z,11.73
2018-05-03T09:41:43.726Z,11.27
2018-05-03T09:44:11.396Z,11.83
2018-05-03T09:46:38.921Z,12.90
2018-05-03T09:49:06.516Z,12.40
2018-05-03T09:51:34.175Z,12.20
2018-05-03T09:54:01.703Z,11.20
2018-05-03T09:56:29.363Z,12.60
2018-05-03T09:58:56.930Z,10.70
2018-05-03T10:01:24.484Z,10.70
2018-05-03T10:03:52.048Z,11.10
2018-05-03T10:06:19.726Z,11.33
2018-05-03T10:08:47.300Z,11.00
2018-05-03T10:11:14.949Z,10.73
2018-05-03T10:13:43.316Z,10.87
2018-05-03T10:16:10.894Z,11.17
2018-05-03T10:18:38.473Z,10.07
2018-05-03T10:21:06.071Z,10.10
2018-05-03T10:23:33.632Z,10.37
2018-05-03T10:26:01.211Z,10.10
2018-05-03T10:28:28.758Z,8.73
2018-05-03T10:30:56.306Z,9.37
2018-05-03T10:33:23.876Z,9.30
2018-05-03T10:35:51.479Z,8.30
2018-05-03T10:38:18.987Z,8.70
2018-05-03T10:40:46.559Z,8.63
2018-05-03T10:43:14.108Z,8.67
2018-05-03T10:45:41.653Z,8.57
2018-05-03T10:48:09.216Z,8.00
2018-05-03T10:50:36.756Z,8.80
2018-05-03T10:53:05.078Z,9.17
2018-05-03T10:55:32.614Z,8.07
2018-05-03T10:58:00.222Z,8.50
2018-05-03T11:00:27.781Z,8.50
2018-05-03T11:02:55.410Z,9.07
2018-05-03T11:05:23.023Z,9.90
2018-05-03T11:07:50.510Z,10.40
2018-05-03T11:10:18.034Z,8.90
2018-05-03T11:12:45.583Z,9.40
2018-05-03T11:15:13.222Z,9.03
2018-05-03T11:17:40.782Z,8.80
2018-05-03T11:20:08.346Z,7.90
2018-05-03T11:22:35.902Z,7.40
2018-05-03T11:25:03.452Z,5.60
2018-05-03T11:27:31.024Z,5.90
2018-05-03T11:29:58.542Z,5.87
2018-05-03T11:32:26.123Z,5.50
2018-05-03T11:34:53.954Z,5.70
2018-05-03T11:37:22.361Z,6.50
2018-05-03T11:39:49.902Z,6.13
2018-05-03T11:42:17.442Z,7.20
2018-05-03T11:44:45.754Z,6.93
2018-05-03T11:47:13.298Z,8.53
2018-05-03T11:49:40.842Z,7.30
2018-05-03T11:52:09.161Z,8.40
2018-05-03T11:54:36.727Z,7.73
2018-05-03T11:57:04.266Z,8.00
2018-05-03T11:59:31.920Z,7.23
2018-05-03T12:01:59.390Z,7.40
2018-05-03T12:04:26.939Z,7.27
2018-05-03T12:06:54.517Z,5.90
2018-05-03T12:09:22.662Z,5.53
2018-05-03T12:11:50.208Z,5.60
2018-05-03T12:14:18.635Z,6.10
2018-05-03T12:16:46.154Z,6.50
2018-05-03T12:19:13.700Z,7.30
2018-05-03T12:21:42.025Z,6.43
2018-05-03T12:24:09.596Z,6.00
2018-05-03T12:26:37.119Z,6.87
2018-05-03T12:29:04.716Z,6.27
2018-05-03T12:31:32.277Z,6.60
2018-05-03T12:33:59.830Z,6.67
2018-05-03T12:36:27.378Z,6.20
2018-05-03T12:38:54.894Z,6.90
2018-05-03T12:41:23.224Z,5.37
2018-05-03T12:43:50.773Z,6.67
2018-05-03T12:46:18.356Z,4.90
2018-05-03T12:48:45.907Z,5.23
2018-05-03T12:51:13.564Z,4.97
2018-05-03T12:53:41.126Z,4.90
2018-05-03T12:56:08.646Z,4.67
2018-05-03T12:58:36.214Z,5.50
2018-05-03T13:01:03.774Z,4.73
2018-05-03T13:03:31.303Z,5.37
2018-05-03T13:05:59.625Z,5.20
2018-05-03T13:08:27.173Z,4.00
2018-05-03T13:10:54.731Z,4.30
2018-05-03T13:13:22.299Z,4.00
2018-05-03T13:15:49.845Z,3.67
2018-05-03T13:18:17.380Z,3.03
2018-05-03T13:20:45.702Z,3.10
2018-05-03T13:23:13.250Z,3.20
2018-05-03T13:25:40.788Z,3.03
2018-05-03T13:28:08.370Z,2.80
2018-05-03T13:30:35.885Z,2.70
2018-05-03T13:33:04.198Z,2.50
2018-05-03T13:35:31.788Z,3.57
2018-05-03T13:37:59.371Z,2.60
2018-05-03T13:40:27.715Z,2.30
2018-05-03T13:42:55.238Z,2.73
2018-05-03T13:45:22.775Z,2.80
2018-05-03T13:47:51.083Z,1.80
2018-05-03T13:50:18.626Z,2.20
2018-05-03T13:52:46.175Z,2.57
2018-05-03T13:55:14.494Z,2.47
2018-05-03T13:57:42.043Z,1.93
2018-05-03T14:00:09.621Z,2.10
2018-05-03T14:02:37.182Z,2.20
2018-05-03T14:05:04.703Z,1.80
2018-05-03T14:07:32.364Z,1.13
2018-05-03T14:09:59.883Z,1.60
2018-05-03T14:12:27.418Z,1.30
2018-05-03T14:14:54.990Z,1.37
2018-05-03T14:17:22.538Z,1.93
2018-05-03T14:19:50.116Z,1.43
2018-05-03T14:22:18.436Z,1.53
2018-05-03T14:24:46.022Z,1.60
2018-05-03T14:27:13.628Z,1.43
2018-05-03T14:29:41.121Z,1.93
2018-05-03T14:32:08.843Z,1.30
2018-05-03T14:34:37.191Z,1.53
2018-05-03T14:37:04.756Z,1.30
2018-05-03T14:39:32.297Z,1.20
2018-05-03T14:41:59.833Z,1.50
2018-05-03T14:44:27.386Z,1.17
2018-05-03T14:46:54.931Z,1.50
2018-05-03T14:49:23.256Z,1.23
2018-05-03T14:51:50.848Z,1.10
2018-05-03T14:54:18.424Z,1.67
2018-05-03T14:56:46.715Z,1.20
2018-05-03T14:59:15.047Z,1.13
2018-05-03T15:01:42.602Z,1.83
2018-05-03T15:04:10.143Z,1.23
2018-05-03T15:06:37.779Z,1.37
2018-05-03T15:09:06.093Z,1.83
2018-05-03T15:11:33.777Z,1.10
2018-05-03T15:14:01.327Z,1.60
2018-05-03T15:16:28.975Z,1.40
2018-05-03T15:18:56.469Z,1.57
2018-05-03T15:21:24.803Z,1.50
2018-05-03T15:23:52.379Z,2.53
2018-05-03T15:26:20.051Z,1.50
2018-05-03T15:28:47.597Z,1.70
2018-05-03T15:31:15.140Z,1.40
2018-05-03T15:33:42.881Z,1.63
2018-05-03T15:36:11.189Z,1.50
2018-05-03T15:38:38.738Z,1.83
2018-05-03T15:41:06.294Z,2.00
2018-05-03T15:43:33.871Z,1.40
2018-05-03T15:46:01.395Z,1.77
2018-05-03T15:48:28.990Z,1.80
2018-05-03T15:50:56.532Z,2.10
2018-05-03T15:53:24.061Z,1.30
2018-05-03T15:55:52.365Z,1.80
2018-05-03T15:58:19.915Z,1.90
2018-05-03T16:00:47.471Z,1.73
2018-05-03T16:03:15.114Z,1.97
2018-05-03T16:05:43.513Z,1.93
2018-05-03T16:08:11.109Z,1.90
2018-05-03T16:10:38.707Z,2.00
2018-05-03T16:13:06.304Z,2.03
2018-05-03T16:15:33.847Z,2.00
2018-05-03T16:18:01.416Z,1.60
2018-05-03T16:20:28.976Z,2.03
2018-05-03T16:22:56.568Z,1.90
2018-05-03T16:25:24.165Z,2.00
2018-05-03T16:27:52.482Z,2.20
2018-05-03T16:30:20.041Z,2.17
2018-05-03T16:32:47.628Z,2.00
2018-05-03T16:35:15.169Z,2.57
2018-05-03T16:37:42.706Z,2.60
2018-05-03T16:40:10.256Z,2.50
2018-05-03T16:42:37.820Z,2.30
2018-05-03T16:45:05.365Z,1.93
2018-05-03T16:47:32.906Z,2.20
2018-05-03T16:50:01.251Z,2.00
2018-05-03T16:52:28.848Z,2.23
2018-05-03T16:54:56.400Z,2.00
2018-05-03T16:57:24.838Z,2.67
2018-05-03T16:59:52.394Z,2.10
2018-05-03T17:02:19.980Z,2.10
2018-05-03T17:04:48.347Z,2.13
2018-05-03T17:07:15.930Z,1.40
2018-05-03T17:09:43.500Z,2.60
2018-05-03T17:12:11.816Z,2.47
2018-05-03T17:14:39.412Z,2.43
2018-05-03T17:17:06.942Z,2.33
2018-05-03T17:19:34.489Z,2.13
2018-05-03T17:22:02.127Z,2.20
2018-05-03T17:24:30.464Z,2.10
2018-05-03T17:26:58.250Z,1.97
2018-05-03T17:29:26.595Z,2.30
2018-05-03T17:31:54.166Z,1.93
2018-05-03T17:34:21.884Z,2.53
2018-05-03T17:36:49.521Z,1.40
2018-05-03T17:39:17.856Z,2.30
2018-05-03T17:41:45.478Z,2.43
2018-05-03T17:44:13.088Z,2.60
2018-05-03T17:46:40.669Z,1.70
2018-05-03T17:49:08.229Z,2.07
2018-05-03T17:51:35.867Z,2.20
2018-05-03T17:54:03.422Z,1.90
2018-05-03T17:56:31.005Z,1.60
2018-05-03T17:58:59.310Z,2.17
2018-05-03T18:01:27.646Z,1.97
2018-05-03T18:03:55.306Z,2.17
2018-05-03T18:06:22.870Z,1.60
2018-05-03T18:08:50.424Z,1.90
2018-05-03T18:11:17.984Z,1.60
2018-05-03T18:13:45.616Z,1.50
2018-05-03T18:16:13.201Z,2.23
2018-05-03T18:18:40.736Z,2.00
2018-05-03T18:21:08.297Z,2.37
2018-05-03T18:23:35.890Z,1.90
2018-05-03T18:26:03.462Z,1.97
2018-05-03T18:28:31.010Z,2.17
2018-05-03T18:30:58.574Z,2.10
2018-05-03T18:33:26.117Z,2.00
2018-05-03T18:35:53.633Z,1.83
2018-05-03T18:38:21.235Z,1.80
2018-05-03T18:40:48.767Z,2.30
2018-05-03T18:43:16.367Z,1.80
2018-05-03T18:45:44.022Z,2.20
2018-05-03T18:48:11.547Z,2.27
2018-05-03T18:50:39.236Z,1.63
2018-05-03T18:53:06.786Z,2.90
2018-05-03T18:55:34.461Z,2.10
2018-05-03T18:58:02.096Z,2.10
2018-05-03T19:00:29.644Z,2.87
2018-05-03T19:02:57.212Z,2.10
2018-05-03T19:05:24.767Z,2.10
2018-05-03T19:07:52.341Z,2.57
2018-05-03T19:10:19.968Z,2.30
2018-05-03T19:12:47.489Z,2.53
2018-05-03T19:15:15.887Z,2.53
2018-05-03T19:17:44.260Z,2.77
2018-05-03T19:20:12.566Z,2.80
2018-05-03T19:22:40.155Z,2.23
2018-05-03T19:25:07.810Z,2.27
2018-05-03T19:27:35.380Z,2.10
2018-05-03T19:30:02.930Z,2.70
2018-05-03T19:32:30.489Z,2.50
2018-05-03T19:34:58.063Z,1.87
2018-05-03T19:37:25.586Z,2.70
2018-05-03T19:39:53.138Z,2.37
2018-05-03T19:42:20.759Z,2.37
2018-05-03T19:44:49.111Z,2.60
2018-05-03T19:47:16.788Z,2.50
2018-05-03T19:49:44.319Z,2.30
2018-05-03T19:52:11.866Z,2.70
2018-05-03T19:54:39.556Z,2.40
2018-05-03T19:57:07.111Z,2.80
2018-05-03T19:59:34.783Z,2.33
2018-05-03T20:02:02.350Z,2.03
2018-05-03T20:04:29.949Z,2.90
2018-05-03T20:06:57.608Z,2.43
2018-05-03T20:09:25.906Z,2.40
2018-05-03T20:11:53.531Z,2.30
2018-05-03T20:14:21.098Z,2.43
2018-05-03T20:16:48.654Z,2.40
2018-05-03T20:19:16.188Z,2.60
2018-05-03T20:21:43.744Z,2.60
2018-05-03T20:24:11.323Z,2.77
2018-05-03T20:26:38.886Z,2.20
2018-05-03T20:29:06.462Z,2.17
2018-05-03T20:31:34.784Z,2.63
2018-05-03T20:34:02.331Z,2.20
2018-05-03T20:36:29.916Z,2.60
2018-05-03T20:38:57.513Z,1.90
2018-05-03T20:41:25.063Z,1.60
2018-05-03T20:43:53.517Z,2.20
2018-05-03T20:46:21.079Z,2.37
2018-05-03T20:48:48.628Z,2.23
2018-05-03T20:51:16.335Z,1.80
2018-05-03T20:53:44.690Z,2.03
2018-05-03T20:56:12.223Z,2.00
2018-05-03T20:58:39.819Z,2.00
2018-05-03T21:01:08.178Z,1.97
2018-05-03T21:03:35.714Z,1.90
2018-05-03T21:06:03.250Z,2.10
2018-05-03T21:08:30.868Z,1.70
2018-05-03T21:10:58.419Z,2.50
2018-05-03T21:13:25.955Z,2.47
2018-05-03T21:15:53.544Z,2.00
2018-05-03T21:18:22.578Z,2.27
2018-05-03T21:20:50.104Z,1.70
2018-05-03T21:23:17.742Z,2.33
2018-05-03T21:25:45.284Z,1.80
2018-05-03T21:28:12.851Z,1.93
2018-05-03T21:30:40.404Z,1.80
2018-05-03T21:33:08.010Z,2.30
2018-05-03T21:35:35.516Z,1.87
2018-05-03T21:38:03.071Z,1.93
2018-05-03T21:40:30.655Z,1.90
2018-05-03T21:42:58.231Z,1.87
2018-05-03T21:45:25.786Z,1.87
2018-05-03T21:47:53.461Z,2.03
2018-05-03T21:50:21.065Z,1.30
2018-05-03T21:52:48.705Z,2.13
2018-05-03T21:55:17.074Z,1.80
2018-05-03T21:57:45.431Z,2.87
2018-05-03T22:00:14.527Z,1.93
2018-05-03T22:02:42.099Z,1.93
2018-05-03T22:05:10.418Z,2.60
2018-05-03T22:07:37.971Z,1.60
2018-05-03T22:10:05.537Z,1.93
2018-05-03T22:12:33.114Z,1.93
2018-05-03T22:15:00.637Z,1.93
2018-05-03T22:17:28.188Z,2.03
2018-05-03T22:19:56.589Z,2.03
2018-05-03T22:22:24.196Z,2.70
2018-05-03T22:24:53.238Z,2.50
2018-05-03T22:27:20.844Z,1.40
2018-05-03T22:29:48.427Z,2.67
2018-05-03T22:32:16.793Z,1.50
2018-05-03T22:34:44.456Z,2.50
2018-05-03T22:37:12.810Z,1.63
2018-05-03T22:39:40.427Z,2.07
2018-05-03T22:42:07.987Z,2.50
2018-05-03T22:44:35.570Z,2.23
2018-05-03T22:47:03.128Z,1.57
2018-05-03T22:49:30.744Z,2.10
2018-05-03T22:51:59.103Z,2.33
2018-05-03T22:54:26.723Z,2.23
2018-05-03T22:56:55.261Z,2.00
2018-05-03T22:59:22.805Z,2.40
2018-05-03T23:01:51.110Z,2.37
2018-05-03T23:04:19.443Z,1.90
2018-05-03T23:06:47.007Z,1.77
2018-05-03T23:09:14.580Z,2.30
2018-05-03T23:11:42.100Z,1.70
2018-05-03T23:14:09.618Z,2.10
2018-05-03T23:16:37.969Z,2.27
2018-05-03T23:19:05.622Z,1.80
2018-05-03T23:21:33.159Z,2.60
2018-05-03T23:24:00.702Z,2.10
2018-05-03T23:26:28.265Z,2.03
2018-05-03T23:28:55.863Z,1.80
2018-05-03T23:31:23.463Z,2.50
2018-05-03T23:33:51.745Z,2.00
2018-05-03T23:36:20.111Z,2.23
2018-05-03T23:38:48.418Z,1.80
2018-05-03T23:41:15.978Z,1.80
2018-05-03T23:43:43.654Z,1.30
2018-05-03T23:46:11.222Z,2.20
2018-05-03T23:48:38.777Z,2.43
2018-05-03T23:51:06.302Z,1.90
2018-05-03T23:53:33.859Z,2.23
2018-05-03T23:56:02.160Z,1.93
2018-05-03T23:58:29.735Z,2.13
